PWSweather.com
Personal Weather Stations
Station Observations
WATERF01
WaterfordIE

WaterfordIE

Lat: 52.2412507, Lon: -7.1414691

Elevation: 65

Station Type: Davis Vantage Vue

www.waterfordweather.com

High Low Average
Temperature 45.5°F7.5°C 34.7°F1.5°C 39.9°F4.4°C
Dew Point 40.6°F4.8°C 34.2°F1.2°C 37.3°F2.9°C
Winds 8.1 mph 13.0 kmh Calm Calm 3.0 mph S4.8 kmh S
Wind Gusts 21.9 mph35.2 kmh -- 7.0 mph11.3 kmh
Humidity 100% 74% 91%
Pressure 30.30 in1026.1 mb 29.52 in999.7 mb -
Precipitation 0.01 in0.3 mm - -
Hour Temp Dew Point Humidity Winds Wind Gusts Pressure Precip Precip Rate Daily Precip Total
12:00 AM 34.7°F1.5°C 34.2°F1.2°C 98% Calm Calm -- 29.52 in999.7 mb - 0.00 in0.0 mm 0.00 in0.0 mm
12:10 AM 34.8°F1.6°C 34.3°F1.3°C 98% Calm Calm -- 29.52 in999.7 mb - 0.00 in0.0 mm 0.00 in0.0 mm
12:20 AM 35.0°F1.7°C 34.5°F1.4°C 98% Calm Calm -- 29.53 in1000.0 mb - 0.00 in0.0 mm 0.00 in0.0 mm
12:30 AM 34.7°F1.5°C 34.2°F1.2°C 98% Calm Calm -- 29.54 in1000.3 mb - 0.00 in0.0 mm 0.00 in0.0 mm
12:40 AM 35.1°F1.7°C 34.6°F1.4°C 98% Calm Calm -- 29.54 in1000.3 mb - 0.00 in0.0 mm 0.00 in0.0 mm
12:50 AM 35.5°F1.9°C 35.2°F1.8°C 99% Calm Calm 2.3 mph3.7 kmh 29.54 in1000.3 mb - 0.00 in0.0 mm 0.00 in0.0 mm
01:00 AM 35.6°F2.0°C 35.1°F1.7°C 98% Calm Calm 2.3 mph3.7 kmh 29.55 in1000.7 mb - 0.00 in0.0 mm 0.00 in0.0 mm
01:10 AM 35.7°F2.1°C 35.4°F1.9°C 99% Calm Calm -- 29.55 in1000.7 mb - 0.00 in0.0 mm 0.00 in0.0 mm
01:20 AM 35.8°F2.1°C 35.5°F1.9°C 99% Calm Calm 1.2 mph1.9 kmh 29.56 in1001.0 mb - 0.00 in0.0 mm 0.00 in0.0 mm
01:30 AM 36.4°F2.4°C 36.2°F2.3°C 99% 1.2 mph E1.9 kmh E 5.8 mph9.3 kmh 29.57 in1001.4 mb - 0.00 in0.0 mm 0.00 in0.0 mm
01:40 AM 36.9°F2.7°C 36.9°F2.7°C 100% Calm Calm -- 29.57 in1001.4 mb - 0.00 in0.0 mm 0.00 in0.0 mm
01:50 AM 36.9°F2.7°C 36.9°F2.7°C 100% Calm Calm -- 29.57 in1001.4 mb - 0.00 in0.0 mm 0.00 in0.0 mm
02:00 AM 37.3°F2.9°C 37.3°F2.9°C 100% 3.5 mph E5.6 kmh E 4.6 mph7.4 kmh 29.58 in1001.7 mb - 0.00 in0.0 mm 0.00 in0.0 mm
02:10 AM 37.6°F3.1°C 37.6°F3.1°C 100% Calm Calm -- 29.58 in1001.7 mb - 0.00 in0.0 mm 0.00 in0.0 mm
02:20 AM 37.7°F3.2°C 37.7°F3.2°C 100% Calm Calm -- 29.59 in1002.0 mb - 0.00 in0.0 mm 0.00 in0.0 mm
02:30 AM 37.6°F3.1°C 37.3°F2.9°C 99% Calm Calm -- 29.60 in1002.4 mb - 0.00 in0.0 mm 0.00 in0.0 mm
02:40 AM 37.8°F3.2°C 37.5°F3.1°C 99% Calm Calm -- 29.60 in1002.4 mb - 0.00 in0.0 mm 0.00 in0.0 mm
02:50 AM 37.6°F3.1°C 37.4°F3.0°C 99% Calm Calm 1.2 mph1.9 kmh 29.61 in1002.7 mb - 0.00 in0.0 mm 0.00 in0.0 mm
03:00 AM 37.5°F3.1°C 37.2°F2.9°C 99% Calm Calm -- 29.61 in1002.7 mb - 0.00 in0.0 mm 0.00 in0.0 mm
03:10 AM 37.3°F2.9°C 37.3°F2.9°C 100% Calm Calm -- 29.62 in1003.0 mb - 0.00 in0.0 mm 0.00 in0.0 mm
03:20 AM 37.0°F2.8°C 37.0°F2.8°C 100% Calm Calm -- 29.63 in1003.4 mb - 0.00 in0.0 mm 0.00 in0.0 mm
03:30 AM 36.4°F2.4°C 36.4°F2.4°C 100% Calm Calm -- 29.63 in1003.4 mb - 0.00 in0.0 mm 0.00 in0.0 mm
03:40 AM 35.8°F2.1°C 35.6°F2.0°C 99% Calm Calm -- 29.64 in1003.7 mb - 0.00 in0.0 mm 0.00 in0.0 mm
03:50 AM 35.5°F1.9°C 35.3°F1.8°C 99% Calm Calm -- 29.64 in1003.7 mb - 0.00 in0.0 mm 0.00 in0.0 mm
04:00 AM 36.3°F2.4°C 36.3°F2.4°C 100% Calm Calm -- 29.65 in1004.1 mb - 0.00 in0.0 mm 0.00 in0.0 mm
04:10 AM 36.3°F2.4°C 36.3°F2.4°C 100% Calm Calm -- 29.66 in1004.4 mb - 0.00 in0.0 mm 0.00 in0.0 mm
04:20 AM 36.4°F2.4°C 36.4°F2.4°C 100% Calm Calm 1.2 mph1.9 kmh 29.66 in1004.4 mb - 0.00 in0.0 mm 0.00 in0.0 mm
04:30 AM 36.7°F2.6°C 36.7°F2.6°C 100% 1.2 mph E1.9 kmh E 2.3 mph3.7 kmh 29.67 in1004.7 mb - 0.00 in0.0 mm 0.00 in0.0 mm
04:40 AM 37.1°F2.8°C 37.1°F2.8°C 100% Calm Calm 1.2 mph1.9 kmh 29.68 in1005.1 mb - 0.00 in0.0 mm 0.00 in0.0 mm
04:50 AM 37.6°F3.1°C 37.6°F3.1°C 100% 1.2 mph E1.9 kmh E 5.8 mph9.3 kmh 29.68 in1005.1 mb - 0.00 in0.0 mm 0.00 in0.0 mm
05:00 AM 37.9°F3.3°C 37.9°F3.3°C 100% 2.3 mph E3.7 kmh E 5.8 mph9.3 kmh 29.69 in1005.4 mb - 0.00 in0.0 mm 0.00 in0.0 mm
05:10 AM 38.2°F3.4°C 38.2°F3.4°C 100% 2.3 mph E3.7 kmh E 5.8 mph9.3 kmh 29.69 in1005.4 mb - 0.00 in0.0 mm 0.00 in0.0 mm
05:20 AM 38.2°F3.4°C 38.2°F3.4°C 100% 2.3 mph E3.7 kmh E 4.6 mph7.4 kmh 29.70 in1005.8 mb - 0.00 in0.0 mm 0.00 in0.0 mm
05:30 AM 38.3°F3.5°C 38.3°F3.5°C 100% 2.3 mph E3.7 kmh E 5.8 mph9.3 kmh 29.71 in1006.1 mb - 0.00 in0.0 mm 0.00 in0.0 mm
05:40 AM 38.3°F3.5°C 38.3°F3.5°C 100% 2.3 mph E3.7 kmh E 4.6 mph7.4 kmh 29.71 in1006.1 mb - 0.00 in0.0 mm 0.00 in0.0 mm
05:50 AM 38.6°F3.7°C 38.6°F3.7°C 100% 3.5 mph ENE5.6 kmh ENE 9.2 mph14.8 kmh 29.72 in1006.4 mb - 0.00 in0.0 mm 0.00 in0.0 mm
06:00 AM 39.2°F4.0°C 39.2°F4.0°C 100% 2.3 mph ENE3.7 kmh ENE 5.8 mph9.3 kmh 29.72 in1006.4 mb - 0.00 in0.0 mm 0.00 in0.0 mm
06:10 AM 39.6°F4.2°C 39.6°F4.2°C 100% 2.3 mph E3.7 kmh E 4.6 mph7.4 kmh 29.73 in1006.8 mb - 0.00 in0.0 mm 0.00 in0.0 mm
06:20 AM 39.8°F4.3°C 39.8°F4.3°C 100% Calm Calm 1.2 mph1.9 kmh 29.73 in1006.8 mb - 0.00 in0.0 mm 0.00 in0.0 mm
06:30 AM 39.0°F3.9°C 38.7°F3.7°C 99% 2.3 mph NNW3.7 kmh NNW 6.9 mph11.1 kmh 29.74 in1007.1 mb - 0.00 in0.0 mm 0.00 in0.0 mm
06:40 AM 38.9°F3.8°C 38.6°F3.7°C 99% 2.3 mph N3.7 kmh N 4.6 mph7.4 kmh 29.75 in1007.5 mb - 0.00 in0.0 mm 0.00 in0.0 mm
06:50 AM 39.0°F3.9°C 38.5°F3.6°C 98% 2.3 mph WNW3.7 kmh WNW 5.8 mph9.3 kmh 29.76 in1007.8 mb - 0.00 in0.0 mm 0.00 in0.0 mm
07:00 AM 39.1°F3.9°C 38.6°F3.7°C 98% 1.2 mph NNW1.9 kmh NNW 4.6 mph7.4 kmh 29.77 in1008.1 mb - 0.00 in0.0 mm 0.00 in0.0 mm
07:10 AM 39.1°F3.9°C 38.6°F3.7°C 98% Calm Calm -- 29.77 in1008.1 mb - 0.00 in0.0 mm 0.00 in0.0 mm
07:20 AM 38.8°F3.8°C 38.3°F3.5°C 98% 2.3 mph NW3.7 kmh NW 5.8 mph9.3 kmh 29.78 in1008.5 mb - 0.00 in0.0 mm 0.00 in0.0 mm
07:30 AM 39.1°F3.9°C 38.6°F3.7°C 98% 1.2 mph NW1.9 kmh NW 5.8 mph9.3 kmh 29.79 in1008.8 mb - 0.00 in0.0 mm 0.00 in0.0 mm
07:40 AM 39.1°F3.9°C 38.6°F3.7°C 98% 3.5 mph NW5.6 kmh NW 6.9 mph11.1 kmh 29.80 in1009.1 mb - 0.00 in0.0 mm 0.00 in0.0 mm
07:50 AM 38.6°F3.7°C 37.8°F3.2°C 97% 3.5 mph NNW5.6 kmh NNW 5.8 mph9.3 kmh 29.80 in1009.1 mb - 0.00 in0.0 mm 0.00 in0.0 mm
08:00 AM 38.3°F3.5°C 37.6°F3.1°C 97% 1.2 mph N1.9 kmh N 2.3 mph3.7 kmh 29.81 in1009.5 mb - 0.00 in0.0 mm 0.00 in0.0 mm
08:10 AM 38.1°F3.4°C 37.6°F3.1°C 98% 3.5 mph NNW5.6 kmh NNW 5.8 mph9.3 kmh 29.82 in1009.8 mb - 0.00 in0.0 mm 0.00 in0.0 mm
08:20 AM 38.5°F3.6°C 38.0°F3.3°C 98% 2.3 mph NW3.7 kmh NW 5.8 mph9.3 kmh 29.82 in1009.8 mb - 0.01 in0.3 mm 0.01 in0.3 mm
08:30 AM 38.9°F3.8°C 38.4°F3.6°C 98% 3.5 mph NW5.6 kmh NW 5.8 mph9.3 kmh 29.83 in1010.2 mb - 0.00 in0.0 mm 0.01 in0.3 mm
08:40 AM 39.4°F4.1°C 38.8°F3.8°C 98% Calm Calm -- 29.84 in1010.5 mb - 0.00 in0.0 mm 0.01 in0.3 mm
08:50 AM 39.5°F4.2°C 39.0°F3.9°C 98% 1.2 mph NNW1.9 kmh NNW 6.9 mph11.1 kmh 29.84 in1010.5 mb - 0.00 in0.0 mm 0.01 in0.3 mm
09:00 AM 39.7°F4.3°C 39.2°F4.0°C 98% 2.3 mph NW3.7 kmh NW 6.9 mph11.1 kmh 29.85 in1010.8 mb - 0.00 in0.0 mm 0.01 in0.3 mm
09:10 AM 39.7°F4.3°C 39.2°F4.0°C 98% 2.3 mph NNW3.7 kmh NNW 4.6 mph7.4 kmh 29.86 in1011.2 mb - 0.00 in0.0 mm 0.01 in0.3 mm
09:20 AM 39.7°F4.3°C 38.7°F3.7°C 96% 4.6 mph NNW7.4 kmh NNW 9.2 mph14.8 kmh 29.86 in1011.2 mb - 0.00 in0.0 mm 0.01 in0.3 mm
09:30 AM 39.7°F4.3°C 38.7°F3.7°C 96% 3.5 mph NNW5.6 kmh NNW 6.9 mph11.1 kmh 29.87 in1011.5 mb - 0.00 in0.0 mm 0.01 in0.3 mm
09:40 AM 39.9°F4.4°C 38.9°F3.8°C 96% 6.9 mph NNW11.1 kmh NNW 11.5 mph18.5 kmh 29.88 in1011.9 mb - 0.00 in0.0 mm 0.01 in0.3 mm
09:50 AM 40.0°F4.4°C 38.7°F3.7°C 95% 6.9 mph NW11.1 kmh NW 11.5 mph18.5 kmh 29.88 in1011.9 mb - 0.00 in0.0 mm 0.01 in0.3 mm
10:00 AM 39.9°F4.4°C 38.9°F3.8°C 96% 4.6 mph NW7.4 kmh NW 8.1 mph13.0 kmh 29.89 in1012.2 mb - 0.00 in0.0 mm 0.01 in0.3 mm
10:10 AM 39.9°F4.4°C 38.9°F3.8°C 96% 4.6 mph NW7.4 kmh NW 5.8 mph9.3 kmh 29.90 in1012.5 mb - 0.00 in0.0 mm 0.01 in0.3 mm
10:20 AM 40.1°F4.5°C 39.1°F3.9°C 96% 2.3 mph NW3.7 kmh NW 5.8 mph9.3 kmh 29.90 in1012.5 mb - 0.00 in0.0 mm 0.01 in0.3 mm
10:30 AM 40.2°F4.6°C 38.9°F3.8°C 95% 4.6 mph NW7.4 kmh NW 6.9 mph11.1 kmh 29.91 in1012.9 mb - 0.00 in0.0 mm 0.01 in0.3 mm
10:40 AM 40.3°F4.6°C 39.0°F3.9°C 95% 2.3 mph NNW3.7 kmh NNW 4.6 mph7.4 kmh 29.92 in1013.2 mb - 0.00 in0.0 mm 0.01 in0.3 mm
10:50 AM 40.5°F4.7°C 39.2°F4.0°C 95% 1.2 mph WSW1.9 kmh WSW 2.3 mph3.7 kmh 29.92 in1013.2 mb - 0.00 in0.0 mm 0.01 in0.3 mm
11:00 AM 41.3°F5.2°C 39.4°F4.1°C 93% 3.5 mph E5.6 kmh E 9.2 mph14.8 kmh 29.92 in1013.2 mb - 0.00 in0.0 mm 0.01 in0.3 mm
11:10 AM 42.2°F5.7°C 39.8°F4.3°C 91% 2.3 mph E3.7 kmh E 9.2 mph14.8 kmh 29.93 in1013.5 mb - 0.00 in0.0 mm 0.01 in0.3 mm
11:20 AM 42.8°F6.0°C 40.1°F4.5°C 90% 3.5 mph N5.6 kmh N 8.1 mph13.0 kmh 29.94 in1013.9 mb - 0.00 in0.0 mm 0.01 in0.3 mm
11:30 AM 43.4°F6.3°C 40.1°F4.5°C 88% 4.6 mph E7.4 kmh E 9.2 mph14.8 kmh 29.94 in1013.9 mb - 0.00 in0.0 mm 0.01 in0.3 mm
11:40 AM 43.9°F6.6°C 40.6°F4.8°C 88% 4.6 mph ENE7.4 kmh ENE 9.2 mph14.8 kmh 29.94 in1013.9 mb - 0.00 in0.0 mm 0.01 in0.3 mm
11:50 AM 44.0°F6.7°C 40.4°F4.7°C 87% 4.6 mph NE7.4 kmh NE 11.5 mph18.5 kmh 29.95 in1014.2 mb - 0.00 in0.0 mm 0.01 in0.3 mm
12:00 PM 44.5°F6.9°C 40.0°F4.4°C 84% 4.6 mph E7.4 kmh E 8.1 mph13.0 kmh 29.95 in1014.2 mb - 0.00 in0.0 mm 0.01 in0.3 mm
12:10 PM 44.6°F7.0°C 39.8°F4.3°C 83% 8.1 mph NE13.0 kmh NE 21.9 mph35.2 kmh 29.95 in1014.2 mb - 0.00 in0.0 mm 0.01 in0.3 mm
12:20 PM 44.6°F7.0°C 39.4°F4.1°C 82% 6.9 mph E11.1 kmh E 16.1 mph25.9 kmh 29.96 in1014.6 mb - 0.00 in0.0 mm 0.01 in0.3 mm
12:30 PM 44.8°F7.1°C 39.3°F4.1°C 81% 8.1 mph E13.0 kmh E 15.0 mph24.1 kmh 29.96 in1014.6 mb - 0.00 in0.0 mm 0.01 in0.3 mm
12:40 PM 45.2°F7.3°C 39.4°F4.1°C 80% 6.9 mph ENE11.1 kmh ENE 15.0 mph24.1 kmh 29.97 in1014.9 mb - 0.00 in0.0 mm 0.01 in0.3 mm
12:50 PM 45.2°F7.3°C 39.4°F4.1°C 80% 6.9 mph ENE11.1 kmh ENE 11.5 mph18.5 kmh 29.97 in1014.9 mb - 0.00 in0.0 mm 0.01 in0.3 mm
01:00 PM 45.4°F7.4°C 38.9°F3.8°C 78% 4.6 mph E7.4 kmh E 13.8 mph22.2 kmh 29.98 in1015.2 mb - 0.00 in0.0 mm 0.01 in0.3 mm
01:10 PM 45.3°F7.4°C 39.1°F3.9°C 79% 4.6 mph SSE7.4 kmh SSE 6.9 mph11.1 kmh 29.99 in1015.6 mb - 0.00 in0.0 mm 0.01 in0.3 mm
01:20 PM 45.0°F7.2°C 38.9°F3.8°C 79% 4.6 mph NE7.4 kmh NE 9.2 mph14.8 kmh 29.99 in1015.6 mb - 0.00 in0.0 mm 0.01 in0.3 mm
01:30 PM 44.8°F7.1°C 39.3°F4.1°C 81% 2.3 mph E3.7 kmh E 11.5 mph18.5 kmh 30.00 in1015.9 mb - 0.00 in0.0 mm 0.01 in0.3 mm
01:40 PM 45.4°F7.4°C 39.3°F4.1°C 79% 4.6 mph E7.4 kmh E 11.5 mph18.5 kmh 30.00 in1015.9 mb - 0.00 in0.0 mm 0.01 in0.3 mm
01:50 PM 45.5°F7.5°C 39.0°F3.9°C 78% 6.9 mph NE11.1 kmh NE 13.8 mph22.2 kmh 30.01 in1016.3 mb - 0.00 in0.0 mm 0.01 in0.3 mm
02:00 PM 45.0°F7.2°C 38.9°F3.8°C 79% 6.9 mph NE11.1 kmh NE 11.5 mph18.5 kmh 30.02 in1016.6 mb - 0.00 in0.0 mm 0.01 in0.3 mm
02:10 PM 44.7°F7.1°C 38.9°F3.8°C 80% 4.6 mph E7.4 kmh E 8.1 mph13.0 kmh 30.02 in1016.6 mb - 0.00 in0.0 mm 0.01 in0.3 mm
02:20 PM 45.1°F7.3°C 38.6°F3.7°C 78% 6.9 mph E11.1 kmh E 11.5 mph18.5 kmh 30.02 in1016.6 mb - 0.00 in0.0 mm 0.01 in0.3 mm
02:30 PM 45.2°F7.3°C 38.4°F3.6°C 77% 6.9 mph ENE11.1 kmh ENE 13.8 mph22.2 kmh 30.03 in1016.9 mb - 0.00 in0.0 mm 0.01 in0.3 mm
02:40 PM 45.2°F7.3°C 39.1°F3.9°C 79% 5.8 mph E9.3 kmh E 12.7 mph20.4 kmh 30.03 in1016.9 mb - 0.00 in0.0 mm 0.01 in0.3 mm
02:50 PM 45.1°F7.3°C 37.3°F2.9°C 74% 6.9 mph ENE11.1 kmh ENE 11.5 mph18.5 kmh 30.04 in1017.3 mb - 0.00 in0.0 mm 0.01 in0.3 mm
03:00 PM 45.1°F7.3°C 38.3°F3.5°C 77% 5.8 mph E9.3 kmh E 11.5 mph18.5 kmh 30.05 in1017.6 mb - 0.00 in0.0 mm 0.01 in0.3 mm
03:10 PM 44.9°F7.2°C 38.1°F3.4°C 77% 4.6 mph E7.4 kmh E 12.7 mph20.4 kmh 30.05 in1017.6 mb - 0.00 in0.0 mm 0.01 in0.3 mm
03:20 PM 44.5°F6.9°C 38.1°F3.4°C 78% 6.9 mph ENE11.1 kmh ENE 9.2 mph14.8 kmh 30.06 in1017.9 mb - 0.00 in0.0 mm 0.01 in0.3 mm
03:30 PM 44.2°F6.8°C 37.8°F3.2°C 78% 6.9 mph E11.1 kmh E 13.8 mph22.2 kmh 30.07 in1018.3 mb - 0.00 in0.0 mm 0.01 in0.3 mm
03:40 PM 44.1°F6.7°C 38.0°F3.3°C 79% 6.9 mph E11.1 kmh E 10.4 mph16.7 kmh 30.07 in1018.3 mb - 0.00 in0.0 mm 0.01 in0.3 mm
03:50 PM 43.9°F6.6°C 38.1°F3.4°C 80% 4.6 mph E7.4 kmh E 11.5 mph18.5 kmh 30.07 in1018.3 mb - 0.00 in0.0 mm 0.01 in0.3 mm
04:00 PM 43.7°F6.5°C 37.6°F3.1°C 79% 4.6 mph E7.4 kmh E 8.1 mph13.0 kmh 30.08 in1018.6 mb - 0.00 in0.0 mm 0.01 in0.3 mm
04:10 PM 43.5°F6.4°C 37.4°F3.0°C 79% 4.6 mph NE7.4 kmh NE 8.1 mph13.0 kmh 30.09 in1019.0 mb - 0.00 in0.0 mm 0.01 in0.3 mm
04:20 PM 43.4°F6.3°C 37.0°F2.8°C 78% 4.6 mph E7.4 kmh E 8.1 mph13.0 kmh 30.09 in1019.0 mb - 0.00 in0.0 mm 0.01 in0.3 mm
04:30 PM 43.3°F6.3°C 37.2°F2.9°C 79% 3.5 mph NNE5.6 kmh NNE 8.1 mph13.0 kmh 30.10 in1019.3 mb - 0.00 in0.0 mm 0.01 in0.3 mm
04:40 PM 43.2°F6.2°C 36.8°F2.7°C 78% 4.6 mph ENE7.4 kmh ENE 11.5 mph18.5 kmh 30.10 in1019.3 mb - 0.00 in0.0 mm 0.01 in0.3 mm
04:50 PM 42.8°F6.0°C 36.4°F2.4°C 78% 5.8 mph ENE9.3 kmh ENE 11.5 mph18.5 kmh 30.10 in1019.3 mb - 0.00 in0.0 mm 0.01 in0.3 mm
05:00 PM 42.5°F5.8°C 36.4°F2.4°C 79% 4.6 mph E7.4 kmh E 8.1 mph13.0 kmh 30.11 in1019.6 mb - 0.00 in0.0 mm 0.01 in0.3 mm
05:10 PM 42.2°F5.7°C 36.5°F2.5°C 80% Calm Calm 2.3 mph3.7 kmh 30.12 in1020.0 mb - 0.00 in0.0 mm 0.01 in0.3 mm
05:20 PM 41.8°F5.4°C 36.4°F2.4°C 81% 2.3 mph S3.7 kmh S 6.9 mph11.1 kmh 30.13 in1020.3 mb - 0.00 in0.0 mm 0.01 in0.3 mm
05:30 PM 41.7°F5.4°C 36.0°F2.2°C 80% 3.5 mph N5.6 kmh N 9.2 mph14.8 kmh 30.14 in1020.7 mb - 0.00 in0.0 mm 0.01 in0.3 mm
05:40 PM 41.6°F5.3°C 35.9°F2.2°C 80% 4.6 mph NE7.4 kmh NE 6.9 mph11.1 kmh 30.14 in1020.7 mb - 0.00 in0.0 mm 0.01 in0.3 mm
05:50 PM 41.2°F5.1°C 36.4°F2.4°C 83% 2.3 mph SW3.7 kmh SW 5.8 mph9.3 kmh 30.15 in1021.0 mb - 0.00 in0.0 mm 0.01 in0.3 mm
06:00 PM 41.0°F5.0°C 36.2°F2.3°C 83% 2.3 mph WNW3.7 kmh WNW 5.8 mph9.3 kmh 30.16 in1021.3 mb - 0.00 in0.0 mm 0.01 in0.3 mm
06:10 PM 40.9°F4.9°C 36.1°F2.3°C 83% 4.6 mph NNW7.4 kmh NNW 15.0 mph24.1 kmh 30.16 in1021.3 mb - 0.00 in0.0 mm 0.01 in0.3 mm
06:20 PM 40.9°F4.9°C 36.7°F2.6°C 85% 4.6 mph ENE7.4 kmh ENE 12.7 mph20.4 kmh 30.17 in1021.7 mb - 0.00 in0.0 mm 0.01 in0.3 mm
06:30 PM 40.8°F4.9°C 36.6°F2.6°C 85% 3.5 mph E5.6 kmh E 8.1 mph13.0 kmh 30.17 in1021.7 mb - 0.00 in0.0 mm 0.01 in0.3 mm
06:40 PM 40.7°F4.8°C 36.5°F2.5°C 85% 4.6 mph ENE7.4 kmh ENE 13.8 mph22.2 kmh 30.18 in1022.0 mb - 0.00 in0.0 mm 0.01 in0.3 mm
06:50 PM 41.0°F5.0°C 37.1°F2.8°C 86% 2.3 mph SE3.7 kmh SE 6.9 mph11.1 kmh 30.18 in1022.0 mb - 0.00 in0.0 mm 0.01 in0.3 mm
07:00 PM 41.2°F5.1°C 37.3°F2.9°C 86% 2.3 mph NE3.7 kmh NE 6.9 mph11.1 kmh 30.18 in1022.0 mb - 0.00 in0.0 mm 0.01 in0.3 mm
07:10 PM 41.1°F5.1°C 36.3°F2.4°C 83% 4.6 mph NE7.4 kmh NE 9.2 mph14.8 kmh 30.19 in1022.4 mb - 0.00 in0.0 mm 0.01 in0.3 mm
07:20 PM 40.9°F4.9°C 36.7°F2.6°C 85% 1.2 mph SE1.9 kmh SE 2.3 mph3.7 kmh 30.20 in1022.7 mb - 0.00 in0.0 mm 0.01 in0.3 mm
07:30 PM 40.8°F4.9°C 36.9°F2.7°C 86% 3.5 mph N5.6 kmh N 11.5 mph18.5 kmh 30.20 in1022.7 mb - 0.00 in0.0 mm 0.01 in0.3 mm
07:40 PM 40.6°F4.8°C 36.4°F2.4°C 85% 3.5 mph NNE5.6 kmh NNE 8.1 mph13.0 kmh 30.20 in1022.7 mb - 0.00 in0.0 mm 0.01 in0.3 mm
07:50 PM 40.5°F4.7°C 36.4°F2.4°C 85% 3.5 mph NNW5.6 kmh NNW 8.1 mph13.0 kmh 30.21 in1023.0 mb - 0.00 in0.0 mm 0.01 in0.3 mm
08:00 PM 40.3°F4.6°C 36.7°F2.6°C 87% 2.3 mph N3.7 kmh N 8.1 mph13.0 kmh 30.21 in1023.0 mb - 0.00 in0.0 mm 0.01 in0.3 mm
08:10 PM 40.0°F4.4°C 36.5°F2.5°C 87% 1.2 mph NW1.9 kmh NW 9.2 mph14.8 kmh 30.22 in1023.4 mb - 0.00 in0.0 mm 0.01 in0.3 mm
08:20 PM 39.9°F4.4°C 36.1°F2.3°C 86% 2.3 mph N3.7 kmh N 5.8 mph9.3 kmh 30.22 in1023.4 mb - 0.00 in0.0 mm 0.01 in0.3 mm
08:30 PM 39.8°F4.3°C 36.2°F2.3°C 87% 1.2 mph E1.9 kmh E 5.8 mph9.3 kmh 30.23 in1023.7 mb - 0.00 in0.0 mm 0.01 in0.3 mm
08:40 PM 39.7°F4.3°C 36.4°F2.4°C 88% Calm Calm 5.8 mph9.3 kmh 30.23 in1023.7 mb - 0.00 in0.0 mm 0.01 in0.3 mm
08:50 PM 39.5°F4.2°C 36.5°F2.5°C 89% 3.5 mph NW5.6 kmh NW 8.1 mph13.0 kmh 30.23 in1023.7 mb - 0.00 in0.0 mm 0.01 in0.3 mm
09:00 PM 39.1°F3.9°C 36.2°F2.3°C 89% 6.9 mph NNW11.1 kmh NNW 8.1 mph13.0 kmh 30.24 in1024.0 mb - 0.00 in0.0 mm 0.01 in0.3 mm
09:10 PM 37.9°F3.3°C 35.2°F1.8°C 90% 8.1 mph NW13.0 kmh NW 11.5 mph18.5 kmh 30.25 in1024.4 mb - 0.00 in0.0 mm 0.01 in0.3 mm
09:20 PM 37.8°F3.2°C 35.4°F1.9°C 91% 8.1 mph NW13.0 kmh NW 11.5 mph18.5 kmh 30.25 in1024.4 mb - 0.00 in0.0 mm 0.01 in0.3 mm
09:30 PM 37.6°F3.1°C 34.9°F1.6°C 90% 5.8 mph NNW9.3 kmh NNW 9.2 mph14.8 kmh 30.26 in1024.7 mb - 0.00 in0.0 mm 0.01 in0.3 mm
09:40 PM 37.3°F2.9°C 34.9°F1.6°C 91% 6.9 mph NW11.1 kmh NW 9.2 mph14.8 kmh 30.26 in1024.7 mb - 0.00 in0.0 mm 0.01 in0.3 mm
09:50 PM 37.1°F2.8°C 34.7°F1.5°C 91% 4.6 mph NW7.4 kmh NW 9.2 mph14.8 kmh 30.27 in1025.1 mb - 0.00 in0.0 mm 0.01 in0.3 mm
10:00 PM 37.1°F2.8°C 34.7°F1.5°C 91% 4.6 mph NW7.4 kmh NW 6.9 mph11.1 kmh 30.27 in1025.1 mb - 0.00 in0.0 mm 0.01 in0.3 mm
10:10 PM 37.0°F2.8°C 34.6°F1.4°C 91% 4.6 mph NW7.4 kmh NW 6.9 mph11.1 kmh 30.27 in1025.1 mb - 0.00 in0.0 mm 0.01 in0.3 mm
10:20 PM 37.1°F2.8°C 35.0°F1.7°C 92% 4.6 mph NNW7.4 kmh NNW 11.5 mph18.5 kmh 30.27 in1025.1 mb - 0.00 in0.0 mm 0.01 in0.3 mm
10:30 PM 37.0°F2.8°C 34.9°F1.6°C 92% 2.3 mph NNW3.7 kmh NNW 8.1 mph13.0 kmh 30.27 in1025.1 mb - 0.00 in0.0 mm 0.01 in0.3 mm
10:40 PM 36.9°F2.7°C 35.0°F1.7°C 93% 4.6 mph NW7.4 kmh NW 8.1 mph13.0 kmh 30.28 in1025.4 mb - 0.00 in0.0 mm 0.01 in0.3 mm
10:50 PM 36.7°F2.6°C 34.9°F1.6°C 93% 4.6 mph NNW7.4 kmh NNW 8.1 mph13.0 kmh 30.28 in1025.4 mb - 0.00 in0.0 mm 0.01 in0.3 mm
11:00 PM 36.5°F2.5°C 34.9°F1.6°C 94% 3.5 mph NW5.6 kmh NW 5.8 mph9.3 kmh 30.28 in1025.4 mb - 0.00 in0.0 mm 0.01 in0.3 mm
11:10 PM 36.5°F2.5°C 34.9°F1.6°C 94% 3.5 mph NNE5.6 kmh NNE 8.1 mph13.0 kmh 30.29 in1025.7 mb - 0.00 in0.0 mm 0.01 in0.3 mm
11:20 PM 36.6°F2.6°C 35.0°F1.7°C 94% 2.3 mph NNW3.7 kmh NNW 5.8 mph9.3 kmh 30.29 in1025.7 mb - 0.00 in0.0 mm 0.01 in0.3 mm
11:30 PM 36.6°F2.6°C 35.0°F1.7°C 94% 3.5 mph NW5.6 kmh NW 6.9 mph11.1 kmh 30.29 in1025.7 mb - 0.00 in0.0 mm 0.01 in0.3 mm
11:40 PM 36.5°F2.5°C 34.9°F1.6°C 94% 3.5 mph N5.6 kmh N 8.1 mph13.0 kmh 30.30 in1026.1 mb - 0.00 in0.0 mm 0.01 in0.3 mm
11:50 PM 36.5°F2.5°C 35.2°F1.8°C 95% 5.8 mph NW9.3 kmh NW 11.5 mph18.5 kmh 30.30 in1026.1 mb - 0.00 in0.0 mm 0.01 in0.3 mm